KPZQ METAR Reports


Rogers City, Presque Isle County Airport, MI, United States (KPZQ) 45-24-25N 083-48-46W
Oct 28, 2020 - 05:35 AM EDT / 2020.10.28 0935 UTC
Wind: from the SSW (210 degrees) at 8 MPH (7 KT):0
Visibility: 10 mile(s):0
Sky conditions: clear
Temperature: 34.7 F (1.5 C)
Windchill: 28 F (-2 C):1
Dew Point: 27.1 F (-2.7 C)
Relative Humidity: 73%
Pressure (altimeter): 29.88 in. Hg (1011 hPa)
ob: KPZQ 280935Z AUTO 21007KT 10SM CLR 02/M03 A2988 RMK AO2 T00151027
cycle: 9

 

Rogers City METAR Meteogram

Weather Chart

Nearby METAR Reports

KPZQ - Rogers City, Michigan, USA
Distance from station: SSW 1mi, 2km
Updated: Wed, 28-Oct-2020 5:35am EDT
NOT Current
Clear
Clear
 Wind from SSW
Wind: SSW 8 mph , 13 km/h
Temperature: 36°F , 2°C
Wind Chill: 30°F , -1°C
Dew Point: 27°F , -3°C
Humidity: 70%
Barometer: 29.88 inHg , 1011.9 hPa
Clouds: Clear
Visibility: 10 miles , 16 km
2020/10/28 09:35 KPZQ 280935Z AUTO 21007KT 10SM CLR 02/M03 A2988 RMK AO2 T00151027
KAPN - Alpena, Michigan, USA
Distance from station: SSE 27mi, 43km
Updated: Wed, 28-Oct-2020 4:54am EDT
NOT Current
Partly cloudy
Partly cloudy
 Wind from SSW
Wind: SSW 8 mph , 13 km/h
Temperature: 36°F , 2°C
Wind Chill: 30°F , -1°C
Dew Point: 28°F , -2°C
Humidity: 75%
Barometer: 29.92 inHg , 1013.2 hPa
Clouds: Partly cloudy
Visibility: 10 miles , 16 km
Cloud details: Partly cloudy 12000 ft
2020/10/28 08:54 KAPN 280854Z AUTO 21007KT 10SM SCT120 02/M02 A2992 RMK AO2 SLP139 T00171022 58022 $
 
KSLH - Cheboygan, Michigan, USA
Distance from station: WNW 38mi, 61km
Updated: Wed, 28-Oct-2020 5:35am EDT
NOT Current
Mostly cloudy
Mostly cloudy
 Wind from SSW
Wind: SSW 10 mph , 17 km/h, Gust: 16 mph , 26 km/h
Temperature: 37°F , 3°C
Wind Chill: 30°F , -1°C
Dew Point: 28°F , -2°C
Humidity: 70%
Barometer: 29.83 inHg , 1010.2 hPa
Clouds: Mostly cloudy
Visibility: 10 miles , 16 km
Cloud details: Mostly cloudy 10000 ft
2020/10/28 09:35 KSLH 280935Z AUTO 21009G14KT 10SM BKN100 03/M02 A2983 RMK AO2 T00271016
KDRM - Drummond Is, Michigan, USA
Distance from station: N 40mi, 65km
Updated: Wed, 28-Oct-2020 5:35am EDT
NOT Current
Overcast
Overcast
 Wind from SW
Wind: SW 12 mph , 19 km/h, Gust: 23 mph , 37 km/h
Temperature: 39°F , 4°C
Wind Chill: 32°F , 0°C
Dew Point: 30°F , -1°C
Humidity: 70%
Barometer: 29.83 inHg , 1010.2 hPa
Clouds: Overcast
Visibility: 10 miles , 16 km
Cloud details: Overcast 10000 ft
2020/10/28 09:35 KDRM 280935Z AUTO 22010G20KT 10SM OVC100 04/M01 A2983 RMK AO2 T00411013
 
KPLN - Pellston, Michigan, USA
Distance from station: WNW 49mi, 79km
Updated: Wed, 28-Oct-2020 4:54am EDT
NOT Current
Clear
Clear
 Wind from SSW
Wind: SSW 9 mph , 15 km/h
Temperature: 37°F , 3°C
Wind Chill: 30°F , -1°C
Dew Point: 28°F , -2°C
Humidity: 70%
Barometer: 29.86 inHg , 1011.2 hPa
Clouds: Clear
Visibility: 10 miles , 16 km
2020/10/28 08:54 KPLN 280854Z AUTO 20008KT 150V240 10SM CLR 03/M02 A2986 RMK AO2 SLP119 T00281022 58024
KMCD - Mackinac Island, Michigan, USA
Distance from station: NW 50mi, 80km
Updated: Wed, 28-Oct-2020 5:15am EDT
NOT Current
Mostly cloudy
Mostly cloudy
 Wind from SSW
Wind: SSW 13 mph , 20 km/h, Gust: 20 mph , 31 km/h
Temperature: 37°F , 3°C
Wind Chill: 29°F , -2°C
Dew Point: 30°F , -1°C
Humidity: 75%
Barometer: 29.82 inHg , 1009.8 hPa
Clouds: Mostly cloudy
Visibility: 10 miles , 16 km
Cloud details: Partly cloudy 3600 ft
Mostly cloudy 10000 ft
2020/10/28 09:15 KMCD 280915Z AUTO 20011G17KT 10SM SCT036 BKN100 03/M01 A2982 RMK AO2 T00341010